createdAt,value
2023-04-08T00:00:05.163Z,1.05
2023-04-08T00:01:05.145Z,1.32
2023-04-08T00:02:05.148Z,1.13
2023-04-08T00:03:05.222Z,1.46
2023-04-08T00:04:05.229Z,1.02
2023-04-08T00:05:05.243Z,1.46
2023-04-08T00:06:04.975Z,1.33
2023-04-08T00:07:04.949Z,1.23
2023-04-08T00:08:04.921Z,1.03
2023-04-08T00:09:04.926Z,1.20
2023-04-08T00:10:04.888Z,1.00
2023-04-08T00:11:04.882Z,1.30
2023-04-08T00:12:04.876Z,1.22
2023-04-08T00:13:04.877Z,1.27
2023-04-08T00:14:04.865Z,0.95
2023-04-08T00:15:04.864Z,1.24
2023-04-08T00:16:04.834Z,1.32
2023-04-08T00:17:04.927Z,1.27
2023-04-08T00:18:04.914Z,1.02
2023-04-08T00:19:04.818Z,1.12
2023-04-08T00:20:04.881Z,1.10
2023-04-08T00:21:04.813Z,0.92
2023-04-08T00:22:04.801Z,1.56
2023-04-08T00:23:04.791Z,1.33
2023-04-08T00:24:04.785Z,1.47
2023-04-08T00:25:04.786Z,1.11
2023-04-08T00:26:04.747Z,1.39
2023-04-08T00:27:04.772Z,1.50
2023-04-08T00:28:04.760Z,1.39
2023-04-08T00:29:04.760Z,1.23
2023-04-08T00:30:04.756Z,1.53
2023-04-08T00:31:04.814Z,1.48
2023-04-08T00:32:04.763Z,1.14
2023-04-08T00:33:04.771Z,0.96
2023-04-08T00:34:04.748Z,1.00
2023-04-08T00:35:04.714Z,1.21
2023-04-08T00:36:04.754Z,1.10
2023-04-08T00:37:04.694Z,1.33
2023-04-08T00:38:04.689Z,1.25
2023-04-08T00:39:04.669Z,1.40
2023-04-08T00:40:04.659Z,1.21
2023-04-08T00:41:04.671Z,0.96
2023-04-08T00:42:04.675Z,1.19
2023-04-08T00:43:04.649Z,0.95
2023-04-08T00:44:04.635Z,1.07
2023-04-08T00:45:04.640Z,1.33
2023-04-08T00:46:04.635Z,1.03
2023-04-08T00:47:04.650Z,0.95
2023-04-08T00:48:04.688Z,0.95
2023-04-08T00:49:04.611Z,1.25
2023-04-08T00:50:04.586Z,1.25
2023-04-08T00:51:04.591Z,1.42
2023-04-08T00:52:04.593Z,1.58
2023-04-08T00:53:04.575Z,1.01
2023-04-08T00:54:04.575Z,1.08
2023-04-08T00:55:04.571Z,1.21
2023-04-08T00:56:04.557Z,1.01
2023-04-08T00:57:04.584Z,1.30
2023-04-08T00:58:04.558Z,1.25
2023-04-08T00:59:04.556Z,1.24
2023-04-08T01:00:04.539Z,1.35
2023-04-08T01:01:04.580Z,0.97
2023-04-08T01:02:04.653Z,1.06
2023-04-08T01:03:04.610Z,1.39
2023-04-08T01:04:04.623Z,0.82
2023-04-08T01:05:04.507Z,1.19
2023-04-08T01:06:04.513Z,1.21
2023-04-08T01:07:04.539Z,1.35
2023-04-08T01:08:04.519Z,1.47
2023-04-08T01:09:04.547Z,1.23
2023-04-08T01:10:04.552Z,1.01
2023-04-08T01:11:04.563Z,1.33
2023-04-08T01:12:04.582Z,1.02
2023-04-08T01:13:04.598Z,1.33
2023-04-08T01:14:04.596Z,1.49
2023-04-08T01:15:04.599Z,1.10
2023-04-08T01:16:04.667Z,1.12
2023-04-08T01:17:04.636Z,1.01
2023-04-08T01:18:04.632Z,1.34
2023-04-08T01:19:04.620Z,1.06
2023-04-08T01:20:04.622Z,1.26
2023-04-08T01:21:04.599Z,1.21
2023-04-08T01:22:04.616Z,1.27
2023-04-08T01:23:04.592Z,1.09
2023-04-08T01:24:04.580Z,1.46
2023-04-08T01:25:04.572Z,1.10
2023-04-08T01:26:04.576Z,0.81
2023-04-08T01:27:04.576Z,1.18
2023-04-08T01:28:04.550Z,1.26
2023-04-08T01:29:04.559Z,1.05
2023-04-08T01:30:04.551Z,1.11
2023-04-08T01:31:04.701Z,0.99
2023-04-08T01:32:04.551Z,1.24
2023-04-08T01:33:04.588Z,1.43
2023-04-08T01:34:04.526Z,1.19
2023-04-08T01:35:04.518Z,1.22
2023-04-08T01:36:04.556Z,1.07
2023-04-08T01:37:04.495Z,1.13
2023-04-08T01:38:04.496Z,1.13
2023-04-08T01:39:04.477Z,1.07
2023-04-08T01:40:04.542Z,0.91
2023-04-08T01:41:04.466Z,1.23
2023-04-08T01:42:04.468Z,1.31
2023-04-08T01:43:04.461Z,1.16
2023-04-08T01:44:04.463Z,1.09
2023-04-08T01:45:04.447Z,1.15
2023-04-08T01:46:04.440Z,1.27
2023-04-08T01:47:04.563Z,1.05
2023-04-08T01:48:04.456Z,1.03
2023-04-08T01:49:04.417Z,1.04
2023-04-08T01:50:04.415Z,0.80
2023-04-08T01:51:04.406Z,0.93
2023-04-08T01:52:04.396Z,1.03
2023-04-08T01:53:04.387Z,0.97
2023-04-08T01:54:04.385Z,1.21
2023-04-08T01:55:04.368Z,1.48
2023-04-08T01:56:04.360Z,1.08
2023-04-08T01:57:04.366Z,1.16
2023-04-08T01:58:04.355Z,1.09
2023-04-08T01:59:04.332Z,0.92
2023-04-08T02:00:04.337Z,1.30
2023-04-08T02:01:04.330Z,1.20
2023-04-08T02:02:04.437Z,0.85
2023-04-08T02:03:04.603Z,1.52
2023-04-08T02:04:04.388Z,1.26
2023-04-08T02:05:04.302Z,1.05
2023-04-08T02:06:04.307Z,1.06
2023-04-08T02:07:04.311Z,1.06
2023-04-08T02:08:04.310Z,1.11
2023-04-08T02:09:04.313Z,0.96
2023-04-08T02:10:04.311Z,1.13
2023-04-08T02:11:04.283Z,1.00
2023-04-08T02:12:04.322Z,0.95
2023-04-08T02:13:04.288Z,1.29
2023-04-08T02:14:04.282Z,1.31
2023-04-08T02:15:04.280Z,0.85
2023-04-08T02:16:04.282Z,0.93
2023-04-08T02:17:04.256Z,1.12
2023-04-08T02:18:04.275Z,1.11
2023-04-08T02:19:04.262Z,1.33
2023-04-08T02:20:04.251Z,1.13
2023-04-08T02:21:04.233Z,1.25
2023-04-08T02:22:04.233Z,1.42
2023-04-08T02:23:04.230Z,1.08
2023-04-08T02:24:04.231Z,1.19
2023-04-08T02:25:04.219Z,1.00
2023-04-08T02:26:04.205Z,1.09
2023-04-08T02:27:04.220Z,1.14
2023-04-08T02:28:04.204Z,1.35
2023-04-08T02:29:04.176Z,0.89
2023-04-08T02:30:04.179Z,1.48
2023-04-08T02:31:04.173Z,1.20
2023-04-08T02:32:04.172Z,1.60
2023-04-08T02:33:04.202Z,1.02
2023-04-08T02:34:04.148Z,1.01
2023-04-08T02:35:04.155Z,1.45
2023-04-08T02:36:04.179Z,1.15
2023-04-08T02:37:04.125Z,1.35
2023-04-08T02:38:04.130Z,1.17
2023-04-08T02:39:04.156Z,1.17
2023-04-08T02:40:04.140Z,1.15
2023-04-08T02:41:04.082Z,1.31
2023-04-08T02:42:04.047Z,1.19
2023-04-08T02:43:04.018Z,1.07
2023-04-08T02:44:04.058Z,1.11
2023-04-08T02:45:03.932Z,1.11
2023-04-08T02:46:04.204Z,1.03
2023-04-08T02:47:03.865Z,1.20
2023-04-08T02:48:03.911Z,1.43
2023-04-08T02:49:03.794Z,1.16
2023-04-08T02:50:03.761Z,1.08
2023-04-08T02:51:03.727Z,1.09
2023-04-08T02:52:03.695Z,1.14
2023-04-08T02:53:03.665Z,1.05
2023-04-08T02:54:03.636Z,1.26
2023-04-08T02:55:03.606Z,0.93
2023-04-08T02:56:03.603Z,1.49
2023-04-08T02:57:03.531Z,1.13
2023-04-08T02:58:03.506Z,0.99
2023-04-08T02:59:03.465Z,1.07
2023-04-08T03:00:03.510Z,1.07
2023-04-08T03:01:03.465Z,1.36
2023-04-08T03:02:03.475Z,1.32
2023-04-08T03:03:03.571Z,1.42
2023-04-08T03:04:03.491Z,1.00
2023-04-08T03:05:03.420Z,1.25
2023-04-08T03:06:03.445Z,1.19
2023-04-08T03:07:03.438Z,1.55
2023-04-08T03:08:03.452Z,1.26
2023-04-08T03:09:03.447Z,1.22
2023-04-08T03:10:03.469Z,1.12
2023-04-08T03:11:03.482Z,1.07
2023-04-08T03:12:03.491Z,1.01
2023-04-08T03:13:03.522Z,1.08
2023-04-08T03:14:03.525Z,0.97
2023-04-08T03:15:03.678Z,1.08
2023-04-08T03:16:03.561Z,1.26
2023-04-08T03:17:03.658Z,1.28
2023-04-08T03:18:03.664Z,1.27
2023-04-08T03:19:03.633Z,1.59
2023-04-08T03:20:03.674Z,1.60
2023-04-08T03:21:03.708Z,1.40
2023-04-08T03:22:03.741Z,1.29
2023-04-08T03:23:03.783Z,1.19
2023-04-08T03:24:03.814Z,1.29
2023-04-08T03:25:03.845Z,1.24
2023-04-08T03:26:03.890Z,1.22
2023-04-08T03:27:03.928Z,1.04
2023-04-08T03:28:03.955Z,1.40
2023-04-08T03:29:03.974Z,1.18
2023-04-08T03:30:04.031Z,1.24
2023-04-08T03:31:04.042Z,1.55
2023-04-08T03:32:04.147Z,1.31
2023-04-08T03:33:06.806Z,1.11
2023-04-08T03:34:04.103Z,1.24
2023-04-08T03:35:04.067Z,1.08
2023-04-08T03:36:04.057Z,1.20
2023-04-08T03:37:04.006Z,1.16
2023-04-08T03:38:03.988Z,1.62
2023-04-08T03:39:03.969Z,1.05
2023-04-08T03:40:03.938Z,1.34
2023-04-08T03:41:03.894Z,1.44
2023-04-08T03:42:03.892Z,1.52
2023-04-08T03:43:03.843Z,1.18
2023-04-08T03:44:03.816Z,1.26
2023-04-08T03:45:03.785Z,1.84
2023-04-08T03:46:03.764Z,1.18
2023-04-08T03:47:03.720Z,1.20
2023-04-08T03:48:03.816Z,1.30
2023-04-08T03:49:03.680Z,1.12
2023-04-08T03:50:03.645Z,1.08
2023-04-08T03:51:03.602Z,1.47
2023-04-08T03:52:03.570Z,1.23
2023-04-08T03:53:03.551Z,1.68
2023-04-08T03:54:03.524Z,2.00
2023-04-08T03:55:03.483Z,2.31
2023-04-08T03:56:03.488Z,2.41
2023-04-08T03:57:03.421Z,3.08
2023-04-08T03:58:03.386Z,2.60
2023-04-08T03:59:03.358Z,3.43
2023-04-08T04:00:03.344Z,3.08
2023-04-08T04:01:03.297Z,2.64
2023-04-08T04:02:03.310Z,3.11
2023-04-08T04:03:03.297Z,2.79
2023-04-08T04:04:03.425Z,2.78
2023-04-08T04:05:03.236Z,2.38
2023-04-08T04:06:03.152Z,2.18
2023-04-08T04:07:03.123Z,2.14
2023-04-08T04:08:03.100Z,2.60
2023-04-08T04:09:03.062Z,2.68
2023-04-08T04:10:03.096Z,2.30
2023-04-08T04:11:03.020Z,2.05
2023-04-08T04:12:02.998Z,2.72
2023-04-08T04:13:02.976Z,2.67
2023-04-08T04:14:02.953Z,2.61
2023-04-08T04:15:02.911Z,2.85
2023-04-08T04:16:02.938Z,3.10
2023-04-08T04:17:02.940Z,2.91
2023-04-08T04:18:02.990Z,2.60
2023-04-08T04:19:03.010Z,2.65
2023-04-08T04:20:02.918Z,2.72
2023-04-08T04:21:02.898Z,2.95
2023-04-08T04:22:02.918Z,2.34
2023-04-08T04:23:02.922Z,2.29
2023-04-08T04:24:02.961Z,2.33
2023-04-08T04:25:02.946Z,2.19
2023-04-08T04:26:02.908Z,2.25
2023-04-08T04:27:02.891Z,3.02
2023-04-08T04:28:02.906Z,2.39
2023-04-08T04:29:02.865Z,2.11
2023-04-08T04:30:02.841Z,2.28
2023-04-08T04:31:02.873Z,1.67
2023-04-08T04:32:02.796Z,2.50
2023-04-08T04:33:02.882Z,1.91
2023-04-08T04:34:02.801Z,2.06
2023-04-08T04:35:02.790Z,2.11
2023-04-08T04:36:02.883Z,2.44
2023-04-08T04:37:02.771Z,1.93
2023-04-08T04:38:02.765Z,2.31
2023-04-08T04:39:02.708Z,2.00
2023-04-08T04:40:02.677Z,2.26
2023-04-08T04:41:02.655Z,2.31
2023-04-08T04:42:02.612Z,2.20
2023-04-08T04:43:02.578Z,2.08
2023-04-08T04:44:02.545Z,2.01
2023-04-08T04:45:02.520Z,2.26
2023-04-08T04:46:02.513Z,1.98
2023-04-08T04:47:02.438Z,1.71
2023-04-08T04:48:02.427Z,2.38
2023-04-08T04:49:02.381Z,2.19
2023-04-08T04:50:02.366Z,2.33
2023-04-08T04:51:02.329Z,2.16
2023-04-08T04:52:02.323Z,2.22
2023-04-08T04:53:02.291Z,2.19
2023-04-08T04:54:02.263Z,1.82
2023-04-08T04:55:02.223Z,2.47
2023-04-08T04:56:02.379Z,1.95
2023-04-08T04:57:02.177Z,1.65
2023-04-08T04:58:02.152Z,2.69
2023-04-08T04:59:02.115Z,1.58
2023-04-08T05:00:04.693Z,1.87
2023-04-08T05:01:02.078Z,1.80
2023-04-08T05:02:02.133Z,1.57
2023-04-08T05:03:02.086Z,1.67
2023-04-08T05:04:01.973Z,1.39
2023-04-08T05:05:02.008Z,1.27
2023-04-08T05:06:01.894Z,1.46
2023-04-08T05:07:01.879Z,1.41
2023-04-08T05:08:01.850Z,1.52
2023-04-08T05:09:01.808Z,1.65
2023-04-08T05:10:01.837Z,1.52
2023-04-08T05:11:01.769Z,1.59
2023-04-08T05:12:01.720Z,1.66
2023-04-08T05:13:01.719Z,1.59
2023-04-08T05:14:01.650Z,1.93
2023-04-08T05:15:01.623Z,1.68
2023-04-08T05:16:01.621Z,1.80
2023-04-08T05:17:01.530Z,1.73
2023-04-08T05:18:01.557Z,1.73
2023-04-08T05:19:01.465Z,1.84
2023-04-08T05:20:01.421Z,2.01
2023-04-08T05:21:01.385Z,1.47
2023-04-08T05:22:01.440Z,1.65
2023-04-08T05:23:01.356Z,1.44
2023-04-08T05:24:01.299Z,1.78
2023-04-08T05:25:01.291Z,2.06
2023-04-08T05:26:01.299Z,1.79
2023-04-08T05:27:01.302Z,1.80
2023-04-08T05:28:01.269Z,1.50
2023-04-08T05:29:01.273Z,1.50
2023-04-08T05:30:01.258Z,1.46
2023-04-08T05:31:01.295Z,1.70
2023-04-08T05:32:01.263Z,1.86
2023-04-08T05:33:01.312Z,2.12
2023-04-08T05:34:01.263Z,1.92
2023-04-08T05:35:01.245Z,2.11
2023-04-08T05:36:01.316Z,2.34
2023-04-08T05:37:01.264Z,1.58
2023-04-08T05:38:01.247Z,1.82
2023-04-08T05:39:03.282Z,1.94
2023-04-08T05:40:01.435Z,2.21
2023-04-08T05:41:01.238Z,2.69
2023-04-08T05:42:01.251Z,2.36
2023-04-08T05:43:01.252Z,2.22
2023-04-08T05:44:01.273Z,2.43
2023-04-08T05:45:01.270Z,2.33
2023-04-08T05:46:01.273Z,2.42
2023-04-08T05:47:01.330Z,2.14
2023-04-08T05:48:01.328Z,2.25
2023-04-08T05:49:01.289Z,2.02
2023-04-08T05:50:01.302Z,2.06
2023-04-08T05:51:01.312Z,2.12
2023-04-08T05:52:01.307Z,1.82
2023-04-08T05:53:01.318Z,2.08
2023-04-08T05:54:01.318Z,2.06
2023-04-08T05:55:01.326Z,1.86
2023-04-08T05:56:01.316Z,1.93
2023-04-08T05:57:01.317Z,1.51
2023-04-08T05:58:01.339Z,1.80
2023-04-08T05:59:01.392Z,1.85
2023-04-08T06:00:01.331Z,1.54
2023-04-08T06:01:01.374Z,1.51
2023-04-08T06:02:01.449Z,1.77
2023-04-08T06:03:01.676Z,1.64
2023-04-08T06:04:01.556Z,1.62
2023-04-08T06:05:01.462Z,1.91
2023-04-08T06:06:01.342Z,1.44
2023-04-08T06:07:01.350Z,1.54
2023-04-08T06:08:01.355Z,1.31
2023-04-08T06:09:01.383Z,1.49
2023-04-08T06:10:01.384Z,1.65
2023-04-08T06:11:01.389Z,1.36
2023-04-08T06:12:01.392Z,1.49
2023-04-08T06:13:01.406Z,1.18
2023-04-08T06:14:01.408Z,1.37
2023-04-08T06:15:01.400Z,1.43
2023-04-08T06:16:01.409Z,1.46
2023-04-08T06:17:01.454Z,1.33
2023-04-08T06:18:01.477Z,1.19
2023-04-08T06:19:01.435Z,1.48
2023-04-08T06:20:01.443Z,1.53
2023-04-08T06:21:01.436Z,1.30
2023-04-08T06:22:01.560Z,1.11
2023-04-08T06:23:01.440Z,1.72
2023-04-08T06:24:01.456Z,1.16
2023-04-08T06:25:01.466Z,1.16
2023-04-08T06:26:01.563Z,1.07
2023-04-08T06:27:01.454Z,1.02
2023-04-08T06:28:01.484Z,1.75
2023-04-08T06:29:01.476Z,2.31
2023-04-08T06:30:01.474Z,2.59
2023-04-08T06:31:01.489Z,2.89
2023-04-08T06:32:01.543Z,2.93
2023-04-08T06:33:01.562Z,2.78
2023-04-08T06:34:01.518Z,3.09
2023-04-08T06:35:01.518Z,2.39
2023-04-08T06:36:01.579Z,3.01
2023-04-08T06:37:01.514Z,2.64
2023-04-08T06:38:01.513Z,2.81
2023-04-08T06:39:01.534Z,2.65
2023-04-08T06:40:01.540Z,2.45
2023-04-08T06:41:01.538Z,2.59
2023-04-08T06:42:01.688Z,2.33
2023-04-08T06:43:01.573Z,2.44
2023-04-08T06:44:01.546Z,2.36
2023-04-08T06:45:01.600Z,1.87
2023-04-08T06:46:01.623Z,2.39
2023-04-08T06:47:01.589Z,1.99
2023-04-08T06:48:01.622Z,2.01
2023-04-08T06:49:01.582Z,1.98
2023-04-08T06:50:01.597Z,1.85
2023-04-08T06:51:01.608Z,2.19
2023-04-08T06:52:01.604Z,1.90
2023-04-08T06:53:01.595Z,1.98
2023-04-08T06:54:01.562Z,1.67
2023-04-08T06:55:01.536Z,1.50
2023-04-08T06:56:01.568Z,1.78
2023-04-08T06:57:01.478Z,2.10
2023-04-08T06:58:01.438Z,1.58
2023-04-08T06:59:01.430Z,1.92
2023-04-08T07:00:01.402Z,1.66
2023-04-08T07:01:01.403Z,1.87
2023-04-08T07:02:01.474Z,1.44
2023-04-08T07:03:01.402Z,1.58
2023-04-08T07:04:01.316Z,2.01
2023-04-08T07:05:01.240Z,1.96
2023-04-08T07:06:01.212Z,1.88
2023-04-08T07:07:01.182Z,1.83
2023-04-08T07:08:01.167Z,1.73
2023-04-08T07:09:01.178Z,1.76
2023-04-08T07:10:01.179Z,1.27
2023-04-08T07:11:01.210Z,1.62
2023-04-08T07:12:01.182Z,1.68
2023-04-08T07:13:01.186Z,1.61
2023-04-08T07:14:01.191Z,1.61
2023-04-08T07:15:01.197Z,1.38
2023-04-08T07:16:01.348Z,1.75
2023-04-08T07:17:01.231Z,1.76
2023-04-08T07:18:01.218Z,1.39
2023-04-08T07:19:01.195Z,1.49
2023-04-08T07:20:01.201Z,1.79
2023-04-08T07:21:01.210Z,1.71
2023-04-08T07:22:01.197Z,1.35
2023-04-08T07:23:01.235Z,1.14
2023-04-08T07:24:01.220Z,1.29
2023-04-08T07:25:01.238Z,1.42
2023-04-08T07:26:01.247Z,1.51
2023-04-08T07:27:01.220Z,1.91
2023-04-08T07:28:01.237Z,1.30
2023-04-08T07:29:01.243Z,1.20
2023-04-08T07:30:01.247Z,1.47
2023-04-08T07:31:01.267Z,1.24
2023-04-08T07:32:01.233Z,1.23
2023-04-08T07:33:01.406Z,1.33
2023-04-08T07:34:01.226Z,1.46
2023-04-08T07:35:01.251Z,1.19
2023-04-08T07:36:01.266Z,1.41
2023-04-08T07:37:01.235Z,1.29
2023-04-08T07:38:01.236Z,1.36
2023-04-08T07:39:01.307Z,1.40
2023-04-08T07:40:01.229Z,1.39
2023-04-08T07:41:01.234Z,1.88
2023-04-08T07:42:01.233Z,1.55
2023-04-08T07:43:01.232Z,1.25
2023-04-08T07:44:01.267Z,0.92
2023-04-08T07:45:01.240Z,1.45
2023-04-08T07:46:01.255Z,1.62
2023-04-08T07:47:01.242Z,1.41
2023-04-08T07:48:01.254Z,1.48
2023-04-08T07:49:01.216Z,1.20
2023-04-08T07:50:01.235Z,1.14
2023-04-08T07:51:08.344Z,1.47
2023-04-08T07:52:01.176Z,1.05
2023-04-08T07:53:01.135Z,1.52
2023-04-08T07:54:01.114Z,1.27
2023-04-08T07:55:01.096Z,1.02
2023-04-08T07:56:01.040Z,1.18
2023-04-08T07:57:01.015Z,1.14
2023-04-08T07:58:00.974Z,1.05
2023-04-08T07:59:00.940Z,1.33
2023-04-08T08:00:00.930Z,1.01
2023-04-08T08:01:00.875Z,1.08
2023-04-08T08:02:00.874Z,1.30
2023-04-08T08:03:00.869Z,1.21
2023-04-08T08:04:00.983Z,1.26
2023-04-08T08:05:00.859Z,1.41
2023-04-08T08:06:00.739Z,1.19
2023-04-08T08:07:00.696Z,1.23
2023-04-08T08:08:00.675Z,1.26
2023-04-08T08:09:00.632Z,1.14
2023-04-08T08:10:00.635Z,1.22
2023-04-08T08:11:00.562Z,1.00
2023-04-08T08:12:00.543Z,1.28
2023-04-08T08:13:00.511Z,1.03
2023-04-08T08:14:00.505Z,1.23
2023-04-08T08:15:00.507Z,1.21
2023-04-08T08:16:00.574Z,1.25
2023-04-08T08:17:00.476Z,1.07
2023-04-08T08:18:00.544Z,1.31
2023-04-08T08:19:00.490Z,1.35
2023-04-08T08:20:00.489Z,1.15
2023-04-08T08:21:00.483Z,1.55
2023-04-08T08:22:00.466Z,1.47
2023-04-08T08:23:00.471Z,1.19
2023-04-08T08:24:00.444Z,1.23
2023-04-08T08:25:00.447Z,1.06
2023-04-08T08:26:00.414Z,1.13
2023-04-08T08:27:00.388Z,1.12
2023-04-08T08:28:00.388Z,1.26
2023-04-08T08:29:00.362Z,1.31
2023-04-08T08:30:00.347Z,1.02
2023-04-08T08:31:00.369Z,1.15
2023-04-08T08:32:00.359Z,1.15
2023-04-08T08:33:00.368Z,1.29
2023-04-08T08:34:00.326Z,1.16
2023-04-08T08:35:00.316Z,1.47
2023-04-08T08:36:00.410Z,1.04
2023-04-08T08:37:00.295Z,0.97
2023-04-08T08:38:00.270Z,1.58
2023-04-08T08:39:00.299Z,1.14
2023-04-08T08:40:00.271Z,1.06
2023-04-08T08:41:00.241Z,1.19
2023-04-08T08:42:00.234Z,1.05
2023-04-08T08:43:00.215Z,1.09
2023-04-08T08:44:00.242Z,1.36
2023-04-08T08:45:00.216Z,1.62
2023-04-08T08:46:00.181Z,1.16
2023-04-08T08:47:00.184Z,1.67
2023-04-08T08:48:00.203Z,1.08
2023-04-08T08:49:00.140Z,1.58
2023-04-08T08:50:00.158Z,0.99
2023-04-08T08:51:00.115Z,1.55
2023-04-08T08:52:00.130Z,1.02
2023-04-08T08:53:00.126Z,1.30
2023-04-08T08:54:00.097Z,1.32
2023-04-08T08:55:00.067Z,1.11
2023-04-08T08:57:01.002Z,1.59
2023-04-08T08:57:59.986Z,1.66
2023-04-08T08:58:59.959Z,1.55
2023-04-08T08:59:59.929Z,1.27
2023-04-08T09:00:59.897Z,1.34
2023-04-08T09:01:59.920Z,1.29
2023-04-08T09:03:00.036Z,1.25
2023-04-08T09:03:59.899Z,1.08
2023-04-08T09:04:59.919Z,1.80
2023-04-08T09:05:59.738Z,1.15
2023-04-08T09:06:59.714Z,0.87
2023-04-08T09:07:59.672Z,1.07
2023-04-08T09:08:59.656Z,1.14
2023-04-08T09:09:59.615Z,1.15
2023-04-08T09:10:59.600Z,1.30
2023-04-08T09:11:59.564Z,1.32
2023-04-08T09:12:59.536Z,0.98
2023-04-08T09:13:59.500Z,0.87
2023-04-08T09:14:59.476Z,1.26
2023-04-08T09:15:59.449Z,1.12
2023-04-08T09:16:59.404Z,1.47
2023-04-08T09:17:59.414Z,0.97
2023-04-08T09:18:59.346Z,1.25
2023-04-08T09:19:59.314Z,1.19
2023-04-08T09:20:59.279Z,0.95
2023-04-08T09:21:59.250Z,1.05
2023-04-08T09:22:59.272Z,1.12
2023-04-08T09:23:59.350Z,1.17
2023-04-08T09:24:59.273Z,0.90
2023-04-08T09:25:59.289Z,0.98
2023-04-08T09:26:59.304Z,1.01
2023-04-08T09:27:59.291Z,1.18
2023-04-08T09:28:59.610Z,0.98
2023-04-08T09:29:59.329Z,0.91
2023-04-08T09:30:59.313Z,1.54
2023-04-08T09:31:59.465Z,1.34
2023-04-08T09:32:59.380Z,0.93
2023-04-08T09:33:59.377Z,0.84
2023-04-08T09:34:59.417Z,1.23
2023-04-08T09:35:59.439Z,0.93
2023-04-08T09:36:59.460Z,1.09
2023-04-08T09:37:59.476Z,1.18
2023-04-08T09:38:59.529Z,1.16
2023-04-08T09:39:59.556Z,0.94
2023-04-08T09:40:59.580Z,1.13
2023-04-08T09:41:59.618Z,1.26
2023-04-08T09:42:59.637Z,0.94
2023-04-08T09:43:59.659Z,0.80
2023-04-08T09:44:59.697Z,0.81
2023-04-08T09:45:59.827Z,1.21
2023-04-08T09:46:59.740Z,1.08
2023-04-08T09:47:59.835Z,0.74
2023-04-08T09:48:59.804Z,1.00
2023-04-08T09:49:59.840Z,1.01
2023-04-08T09:50:59.902Z,0.94
2023-04-08T09:51:59.900Z,1.28
2023-04-08T09:52:59.918Z,0.95
2023-04-08T09:53:59.949Z,0.73
2023-04-08T09:54:59.983Z,1.15
2023-04-08T09:55:59.999Z,1.05
2023-04-08T09:57:00.022Z,0.99
2023-04-08T09:58:00.072Z,0.93
2023-04-08T09:59:00.048Z,1.04
2023-04-08T10:00:00.049Z,0.97
2023-04-08T10:01:00.139Z,1.09
2023-04-08T10:02:00.278Z,1.12
2023-04-08T10:03:00.303Z,0.66
2023-04-08T10:04:00.214Z,0.89
2023-04-08T10:05:00.260Z,0.97
2023-04-08T10:06:00.162Z,0.89
2023-04-08T10:07:00.153Z,0.74
2023-04-08T10:08:00.158Z,0.83
2023-04-08T10:09:00.177Z,1.04
2023-04-08T10:10:00.240Z,1.22
2023-04-08T10:11:00.193Z,1.30
2023-04-08T10:12:00.203Z,1.35
2023-04-08T10:13:00.219Z,0.70
2023-04-08T10:14:00.222Z,0.65
2023-04-08T10:15:00.234Z,0.81
2023-04-08T10:16:00.226Z,1.01
2023-04-08T10:17:00.326Z,0.77
2023-04-08T10:18:00.246Z,0.97
2023-04-08T10:19:00.242Z,0.88
2023-04-08T10:20:00.255Z,0.89
2023-04-08T10:21:00.253Z,1.25
2023-04-08T10:22:00.277Z,1.08
2023-04-08T10:23:00.266Z,1.00
2023-04-08T10:24:00.252Z,1.11
2023-04-08T10:25:00.260Z,1.13
2023-04-08T10:26:00.255Z,1.23
2023-04-08T10:27:00.279Z,0.97
2023-04-08T10:28:00.255Z,1.29
2023-04-08T10:29:00.255Z,1.01
2023-04-08T10:30:00.265Z,1.00
2023-04-08T10:31:00.254Z,1.21
2023-04-08T10:32:00.282Z,1.32
2023-04-08T10:33:00.383Z,0.92
2023-04-08T10:34:00.221Z,0.94
2023-04-08T10:35:00.230Z,0.69
2023-04-08T10:36:00.283Z,0.87
2023-04-08T10:37:00.209Z,1.31
2023-04-08T10:38:00.190Z,0.91
2023-04-08T10:39:00.195Z,0.80
2023-04-08T10:40:00.209Z,0.94
2023-04-08T10:41:00.187Z,0.89
2023-04-08T10:42:00.244Z,0.74
2023-04-08T10:43:00.141Z,1.02
2023-04-08T10:44:00.142Z,1.34
2023-04-08T10:45:00.159Z,0.99
2023-04-08T10:46:00.142Z,0.86
2023-04-08T10:47:00.172Z,0.93
2023-04-08T10:48:00.160Z,1.09
2023-04-08T10:49:00.155Z,0.85
2023-04-08T10:50:00.135Z,1.04
2023-04-08T10:51:00.114Z,0.92
2023-04-08T10:52:00.120Z,0.93
2023-04-08T10:53:00.051Z,0.75
2023-04-08T10:54:00.034Z,0.97
2023-04-08T10:55:00.026Z,1.13
2023-04-08T10:56:00.020Z,0.83
2023-04-08T10:56:59.996Z,0.91
2023-04-08T10:57:59.984Z,0.67
2023-04-08T10:58:59.975Z,1.04
2023-04-08T10:59:59.952Z,0.69
2023-04-08T11:00:59.971Z,1.08
2023-04-08T11:02:00.222Z,1.06
2023-04-08T11:03:00.067Z,0.83
2023-04-08T11:03:59.992Z,1.00
2023-04-08T11:04:59.912Z,0.66
2023-04-08T11:05:59.921Z,0.74
2023-04-08T11:06:59.901Z,1.28
2023-04-08T11:07:59.879Z,0.91
2023-04-08T11:08:59.848Z,0.94
2023-04-08T11:09:59.843Z,0.77
2023-04-08T11:10:59.830Z,0.73
2023-04-08T11:11:59.813Z,1.00
2023-04-08T11:12:59.784Z,0.91
2023-04-08T11:13:59.785Z,1.03
2023-04-08T11:14:59.749Z,0.99
2023-04-08T11:15:59.874Z,0.99
2023-04-08T11:16:59.721Z,0.87
2023-04-08T11:17:59.741Z,1.15
2023-04-08T11:18:59.672Z,0.87
2023-04-08T11:19:59.659Z,1.11
2023-04-08T11:21:00.425Z,0.91
2023-04-08T11:21:59.635Z,0.76
2023-04-08T11:22:59.620Z,0.85
2023-04-08T11:23:59.600Z,0.80
2023-04-08T11:24:59.602Z,1.17
2023-04-08T11:25:59.602Z,1.09
2023-04-08T11:26:59.567Z,0.98
2023-04-08T11:27:59.552Z,0.72
2023-04-08T11:28:59.538Z,0.54
2023-04-08T11:29:59.516Z,0.94
2023-04-08T11:30:59.592Z,1.15
2023-04-08T11:31:59.481Z,0.86
2023-04-08T11:32:59.462Z,0.93
2023-04-08T11:33:59.374Z,1.14
2023-04-08T11:34:59.340Z,0.70
2023-04-08T11:35:59.326Z,0.92
2023-04-08T11:36:59.269Z,1.05
2023-04-08T11:37:59.239Z,0.81
2023-04-08T11:38:59.185Z,0.78
2023-04-08T11:39:59.166Z,0.81
2023-04-08T11:40:59.249Z,1.08
2023-04-08T11:41:59.095Z,0.93
2023-04-08T11:42:59.052Z,0.95
2023-04-08T11:43:59.007Z,0.94
2023-04-08T11:44:58.961Z,0.92
2023-04-08T11:45:58.954Z,0.62
2023-04-08T11:46:58.888Z,1.19
2023-04-08T11:47:58.891Z,0.94
2023-04-08T11:48:58.788Z,1.11
2023-04-08T11:49:58.753Z,0.80
2023-04-08T11:50:58.713Z,0.72
2023-04-08T11:51:58.684Z,0.98
2023-04-08T11:52:58.654Z,0.81
2023-04-08T11:53:58.619Z,1.10
2023-04-08T11:54:58.585Z,0.83
2023-04-08T11:55:58.554Z,0.86
2023-04-08T11:56:58.566Z,0.84
2023-04-08T11:57:58.525Z,0.78
2023-04-08T11:58:58.490Z,0.64
2023-04-08T11:59:58.466Z,1.05
2023-04-08T12:00:58.456Z,0.85
2023-04-08T12:01:58.434Z,0.73
2023-04-08T12:02:58.442Z,0.79
2023-04-08T12:03:58.841Z,1.05
2023-04-08T12:04:58.368Z,0.75
2023-04-08T12:05:58.329Z,1.14
2023-04-08T12:06:58.569Z,1.03
2023-04-08T12:07:58.277Z,0.95
2023-04-08T12:08:58.253Z,0.80
2023-04-08T12:09:58.226Z,0.96
2023-04-08T12:11:03.720Z,0.77
2023-04-08T12:11:59.162Z,0.76
2023-04-08T12:12:58.142Z,0.85
2023-04-08T12:13:58.090Z,0.93
2023-04-08T12:14:58.045Z,0.79
2023-04-08T12:15:58.053Z,0.60
2023-04-08T12:16:57.972Z,0.95
2023-04-08T12:17:58.014Z,0.93
2023-04-08T12:18:57.892Z,1.16
2023-04-08T12:19:57.847Z,0.75
2023-04-08T12:20:57.811Z,0.68
2023-04-08T12:21:57.767Z,0.76
2023-04-08T12:22:57.744Z,1.31
2023-04-08T12:23:57.690Z,0.82
2023-04-08T12:24:59.227Z,0.99
2023-04-08T12:25:57.613Z,0.90
2023-04-08T12:26:57.565Z,1.15
2023-04-08T12:27:57.547Z,0.86
2023-04-08T12:28:57.485Z,1.03
2023-04-08T12:29:57.452Z,0.94
2023-04-08T12:30:57.406Z,0.93
2023-04-08T12:31:57.408Z,0.58
2023-04-08T12:32:57.334Z,0.96
2023-04-08T12:33:57.281Z,1.02
2023-04-08T12:34:57.223Z,0.70
2023-04-08T12:35:57.226Z,0.79
2023-04-08T12:36:57.153Z,0.98
2023-04-08T12:37:57.123Z,0.87
2023-04-08T12:38:57.067Z,0.98
2023-04-08T12:39:57.045Z,0.72
2023-04-08T12:40:56.996Z,1.02
2023-04-08T12:41:56.958Z,0.79
2023-04-08T12:42:56.918Z,0.75
2023-04-08T12:43:56.890Z,0.75
2023-04-08T12:44:56.840Z,0.89
2023-04-08T12:45:56.805Z,0.93
2023-04-08T12:46:56.794Z,1.11
2023-04-08T12:47:56.754Z,0.67
2023-04-08T12:49:04.205Z,0.82
2023-04-08T12:49:57.658Z,0.74
2023-04-08T12:50:56.631Z,1.28
2023-04-08T12:51:56.589Z,0.75
2023-04-08T12:52:56.563Z,0.98
2023-04-08T12:53:56.500Z,0.99
2023-04-08T12:54:56.450Z,0.94
2023-04-08T12:55:56.415Z,0.87
2023-04-08T12:56:56.365Z,0.69
2023-04-08T12:57:56.334Z,1.01
2023-04-08T12:58:56.284Z,1.11
2023-04-08T12:59:56.256Z,0.97
2023-04-08T13:00:56.276Z,0.98
2023-04-08T13:01:56.273Z,0.71
2023-04-08T13:02:56.197Z,0.82
2023-04-08T13:03:56.170Z,0.82
2023-04-08T13:04:56.103Z,0.69
2023-04-08T13:05:56.059Z,0.80
2023-04-08T13:06:56.026Z,0.92
2023-04-08T13:07:55.974Z,0.81
2023-04-08T13:08:55.941Z,1.05
2023-04-08T13:09:55.892Z,0.93
2023-04-08T13:10:55.855Z,0.79
2023-04-08T13:11:55.801Z,0.99
2023-04-08T13:12:55.791Z,1.13
2023-04-08T13:13:55.725Z,0.79
2023-04-08T13:14:55.675Z,0.93
2023-04-08T13:15:55.629Z,0.94
2023-04-08T13:16:55.660Z,0.89
2023-04-08T13:17:55.561Z,1.29
2023-04-08T13:18:55.515Z,0.82